Time;durP1;ratioP1;P1;durP2;ratioP2;P2;SDS_P1;SDS_P2;PMS_P1;PMS_P2;Temp;Humidity;BMP_temperature;BMP_pressure;BME280_temperature;BME280_humidity;BME280_pressure;Samples;Min_cycle;Max_cycle;Signal;HPM_P1;HPM_P2
2022/11/21 00:00:21;;;;;;;0.17;0.10;;;;;;;;;;4144318;28;20057;-45
2022/11/21 00:02:23;;;;;;;0.57;0.20;;;;;;;;;;4136929;28;20054;-45
2022/11/21 00:04:25;;;;;;;0.20;0.10;;;;;;;;;;4146682;28;20056;-44
2022/11/21 00:06:26;;;;;;;0.10;0.10;;;;;;;;;;4129805;28;20587;-43
2022/11/21 00:08:27;;;;;;;0.10;0.10;;;;;;;;;;4145475;28;20093;-48
2022/11/21 00:10:29;;;;;;;0.17;0.15;;;;;;;;;;4135803;28;20050;-45
2022/11/21 00:12:30;;;;;;;0.10;0.10;;;;;;;;;;4139219;28;20058;-44
2022/11/21 00:14:32;;;;;;;0.28;0.17;;;;;;;;;;4141956;28;20053;-45
2022/11/21 00:16:33;;;;;;;0.15;0.10;;;;;;;;;;4145843;28;20060;-44
2022/11/21 00:18:35;;;;;;;0.10;0.10;;;;;;;;;;4143290;28;20058;-49
2022/11/21 00:20:36;;;;;;;0.28;0.22;;;;;;;;;;4130338;28;20058;-46
2022/11/21 00:22:38;;;;;;;0.10;0.10;;;;;;;;;;4141005;28;20053;-46
2022/11/21 00:24:39;;;;;;;0.28;0.17;;;;;;;;;;4133687;28;20050;-45
2022/11/21 00:26:40;;;;;;;0.13;0.10;;;;;;;;;;4133787;28;20119;-46
2022/11/21 00:28:42;;;;;;;0.10;0.10;;;;;;;;;;4146993;28;20493;-46
2022/11/21 00:30:44;;;;;;;0.10;0.10;;;;;;;;;;4120339;28;20081;-48
2022/11/21 00:32:45;;;;;;;0.20;0.20;;;;;;;;;;4143037;28;20327;-44
2022/11/21 00:34:46;;;;;;;0.30;0.30;;;;;;;;;;4145629;28;20053;-44
2022/11/21 00:36:48;;;;;;;0.28;0.10;;;;;;;;;;4147249;28;20116;-45
2022/11/21 00:38:49;;;;;;;0.40;0.20;;;;;;;;;;4146736;28;20054;-45
2022/11/21 00:40:51;;;;;;;0.28;0.13;;;;;;;;;;4141968;28;20045;-44
2022/11/21 00:42:52;;;;;;;0.30;0.30;;;;;;;;;;4146723;28;20050;-44
2022/11/21 00:44:53;;;;;;;0.20;0.10;;;;;;;;;;4146876;28;20078;-44
2022/11/21 00:46:54;;;;;;;0.20;0.13;;;;;;;;;;4126440;28;20101;-46
2022/11/21 00:48:55;;;;;;;0.10;0.10;;;;;;;;;;4151677;28;20049;-45
2022/11/21 00:50:57;;;;;;;0.10;0.10;;;;;;;;;;4146206;28;20057;-44
2022/11/21 00:52:58;;;;;;;0.20;0.15;;;;;;;;;;4146741;28;20057;-43
2022/11/21 00:54:59;;;;;;;0.20;0.17;;;;;;;;;;4144459;28;20151;-46
2022/11/21 00:57:00;;;;;;;0.28;0.20;;;;;;;;;;4113337;28;20081;-50
2022/11/21 00:59:01;;;;;;;0.20;0.10;;;;;;;;;;4138393;28;20049;-44
2022/11/21 01:01:09;;;;;;;0.13;0.10;;;;;;;;;;4135864;28;20085;-45
2022/11/21 01:03:11;;;;;;;0.10;0.10;;;;;;;;;;4128449;28;20058;-45
2022/11/21 01:05:12;;;;;;;0.20;0.17;;;;;;;;;;4133871;28;20158;-45
2022/11/21 01:07:14;;;;;;;0.20;0.20;;;;;;;;;;4146727;28;20046;-44
2022/11/21 01:09:16;;;;;;;0.20;0.20;;;;;;;;;;4150264;28;20417;-46
2022/11/21 01:11:19;;;;;;;0.20;0.20;;;;;;;;;;4126990;28;20066;-45
2022/11/21 01:13:20;;;;;;;0.10;0.10;;;;;;;;;;4129395;28;20062;-45
2022/11/21 01:15:22;;;;;;;0.10;0.10;;;;;;;;;;4146636;28;20054;-46
2022/11/21 01:17:23;;;;;;;0.32;0.20;;;;;;;;;;4146586;28;20054;-44
2022/11/21 01:19:24;;;;;;;0.13;0.13;;;;;;;;;;4144462;28;20077;-44
2022/11/21 01:21:29;;;;;;;0.13;0.10;;;;;;;;;;4130505;28;20054;-44
2022/11/21 01:23:30;;;;;;;0.20;0.10;;;;;;;;;;4144667;28;20058;-45
2022/11/21 01:25:35;;;;;;;0.38;0.30;;;;;;;;;;4149147;28;20061;-44
2022/11/21 01:27:36;;;;;;;0.10;0.10;;;;;;;;;;4131982;28;20418;-44
2022/11/21 01:29:38;;;;;;;0.38;0.30;;;;;;;;;;4149458;28;20116;-45
2022/11/21 01:31:39;;;;;;;0.20;0.20;;;;;;;;;;4149562;28;20054;-45
2022/11/21 01:33:41;;;;;;;0.20;0.20;;;;;;;;;;4139034;28;20425;-50
2022/11/21 01:35:43;;;;;;;0.35;0.28;;;;;;;;;;4129083;28;20058;-44
2022/11/21 01:37:48;;;;;;;0.30;0.30;;;;;;;;;;4149483;28;20125;-44
2022/11/21 01:39:50;;;;;;;0.20;0.20;;;;;;;;;;4149350;28;20347;-44
2022/11/21 01:41:52;;;;;;;0.30;0.10;;;;;;;;;;4139029;28;20116;-43
2022/11/21 01:43:53;;;;;;;0.40;0.30;;;;;;;;;;4146214;28;20057;-45
2022/11/21 01:45:57;;;;;;;0.10;0.10;;;;;;;;;;4136545;28;20058;-44
2022/11/21 01:47:58;;;;;;;0.38;0.20;;;;;;;;;;4157486;28;20073;-44
2022/11/21 01:50:00;;;;;;;0.32;0.30;;;;;;;;;;4142610;28;20505;-44
2022/11/21 01:52:28;;;;;;;0.40;0.20;;;;;;;;;;4149322;28;20473;-45
2022/11/21 01:54:33;;;;;;;0.10;0.10;;;;;;;;;;4149360;28;20058;-46
2022/11/21 01:56:40;;;;;;;0.50;0.30;;;;;;;;;;4139345;28;20058;-45
2022/11/21 01:58:43;;;;;;;0.25;0.25;;;;;;;;;;4146628;28;20050;-45
2022/11/21 02:00:46;;;;;;;0.17;0.17;;;;;;;;;;4115469;28;20418;-44
2022/11/21 02:02:54;;;;;;;0.38;0.20;;;;;;;;;;4149264;28;20062;-45
2022/11/21 02:04:56;;;;;;;0.28;0.20;;;;;;;;;;4151108;28;20053;-44
2022/11/21 02:06:58;;;;;;;0.10;0.10;;;;;;;;;;4145694;28;20092;-45
2022/11/21 02:09:00;;;;;;;0.20;0.20;;;;;;;;;;4138065;28;20053;-43
2022/11/21 02:11:01;;;;;;;0.10;0.10;;;;;;;;;;4140700;28;20066;-45
2022/11/21 02:13:03;;;;;;;0.20;0.20;;;;;;;;;;4144463;28;20053;-46
2022/11/21 02:15:05;;;;;;;0.20;0.20;;;;;;;;;;4135290;28;20470;-45
2022/11/21 02:17:08;;;;;;;0.17;0.17;;;;;;;;;;4148906;28;20421;-44
2022/11/21 02:19:29;;;;;;;0.55;0.35;;;;;;;;;;4141015;28;20054;-47
2022/11/21 02:21:52;;;;;;;0.40;0.20;;;;;;;;;;4146199;28;20057;-45
2022/11/21 02:24:24;;;;;;;0.20;0.17;;;;;;;;;;4142544;28;20437;-45
2022/11/21 02:26:26;;;;;;;0.20;0.20;;;;;;;;;;4145541;28;20049;-44
2022/11/21 02:28:28;;;;;;;0.25;0.20;;;;;;;;;;4136053;28;20104;-44
2022/11/21 02:30:31;;;;;;;0.20;0.20;;;;;;;;;;4148895;28;20054;-45
2022/11/21 02:32:41;;;;;;;0.20;0.20;;;;;;;;;;4131323;28;20514;-45
2022/11/21 02:34:42;;;;;;;;;;;;;;;;;;4147812;28;20184;-45
2022/11/21 02:36:47;;;;;;;0.22;0.22;;;;;;;;;;4134778;28;20307;-43
2022/11/21 02:38:48;;;;;;;0.20;0.20;;;;;;;;;;4141350;28;20058;-45
2022/11/21 02:41:11;;;;;;;0.22;0.20;;;;;;;;;;4157923;28;20049;-44
2022/11/21 02:43:22;;;;;;;0.10;0.10;;;;;;;;;;4132152;28;20105;-45
2022/11/21 02:45:28;;;;;;;0.20;0.20;;;;;;;;;;4151137;28;20335;-47
2022/11/21 02:47:30;;;;;;;0.32;0.30;;;;;;;;;;4131135;28;20069;-45
2022/11/21 02:49:40;;;;;;;0.40;0.30;;;;;;;;;;4137132;28;20465;-47
2022/11/21 02:51:41;;;;;;;0.50;0.22;;;;;;;;;;4133725;28;20046;-46
2022/11/21 02:53:42;;;;;;;0.20;0.20;;;;;;;;;;4130978;28;20427;-45
2022/11/21 02:55:44;;;;;;;0.30;0.25;;;;;;;;;;4148113;28;20053;-45
2022/11/21 02:57:45;;;;;;;0.20;0.20;;;;;;;;;;4148251;28;20443;-43
2022/11/21 02:59:47;;;;;;;0.38;0.30;;;;;;;;;;4117608;28;20058;-44
2022/11/21 03:01:48;;;;;;;0.10;0.10;;;;;;;;;;4148067;28;20061;-45
2022/11/21 03:03:50;;;;;;;0.20;0.20;;;;;;;;;;4140928;28;20057;-45
2022/11/21 03:05:51;;;;;;;0.10;0.10;;;;;;;;;;4147219;28;20065;-44
2022/11/21 03:07:53;;;;;;;0.20;0.20;;;;;;;;;;4134342;28;20455;-45
2022/11/21 03:09:54;;;;;;;0.30;0.17;;;;;;;;;;4140202;28;20413;-44
2022/11/21 03:11:55;;;;;;;0.28;0.20;;;;;;;;;;4146625;28;20394;-45
2022/11/21 03:13:57;;;;;;;0.20;0.20;;;;;;;;;;4138310;28;20108;-45
2022/11/21 03:15:58;;;;;;;0.43;0.25;;;;;;;;;;4144019;28;20050;-44
2022/11/21 03:18:01;;;;;;;0.20;0.20;;;;;;;;;;4130215;28;20085;-45
2022/11/21 03:20:03;;;;;;;0.28;0.20;;;;;;;;;;4147345;28;20104;-47
2022/11/21 03:22:05;;;;;;;0.20;0.20;;;;;;;;;;4130548;28;20505;-47
2022/11/21 03:24:06;;;;;;;0.30;0.30;;;;;;;;;;4134790;28;20062;-44
2022/11/21 03:26:08;;;;;;;0.30;0.20;;;;;;;;;;4130184;28;20066;-43
2022/11/21 03:28:09;;;;;;;0.50;0.40;;;;;;;;;;4137649;28;20046;-44
2022/11/21 03:30:11;;;;;;;0.28;0.20;;;;;;;;;;4138749;28;20058;-44
2022/11/21 03:32:13;;;;;;;0.60;0.30;;;;;;;;;;4143630;28;20096;-45
2022/11/21 03:34:14;;;;;;;0.30;0.20;;;;;;;;;;4147481;28;20058;-43
2022/11/21 03:36:16;;;;;;;0.30;0.28;;;;;;;;;;4147302;28;20081;-44
2022/11/21 03:38:17;;;;;;;0.13;0.13;;;;;;;;;;4147766;28;20092;-44
2022/11/21 03:40:18;;;;;;;0.40;0.20;;;;;;;;;;4130010;28;20054;-45
2022/11/21 03:42:20;;;;;;;0.20;0.20;;;;;;;;;;4133737;28;20058;-45
2022/11/21 03:44:21;;;;;;;0.40;0.30;;;;;;;;;;4147497;28;20054;-44
2022/11/21 03:46:22;;;;;;;0.25;0.20;;;;;;;;;;4140520;28;20116;-44
2022/11/21 03:48:23;;;;;;;0.30;0.25;;;;;;;;;;4140989;28;20521;-47
2022/11/21 03:50:25;;;;;;;0.25;0.25;;;;;;;;;;4133662;28;20062;-43
2022/11/21 03:52:26;;;;;;;0.40;0.32;;;;;;;;;;4134540;28;20058;-43
2022/11/21 03:54:27;;;;;;;0.30;0.30;;;;;;;;;;4123820;28;20055;-44
2022/11/21 03:56:29;;;;;;;0.40;0.20;;;;;;;;;;4131293;28;20058;-48
2022/11/21 03:58:30;;;;;;;0.50;0.40;;;;;;;;;;4143362;28;20547;-45
2022/11/21 04:00:32;;;;;;;0.25;0.20;;;;;;;;;;4146794;28;20414;-46
2022/11/21 04:02:33;;;;;;;0.40;0.30;;;;;;;;;;4129910;28;20054;-46
2022/11/21 04:04:34;;;;;;;0.30;0.30;;;;;;;;;;4146512;28;20054;-45
2022/11/21 04:06:36;;;;;;;0.20;0.20;;;;;;;;;;4134703;28;20050;-44
2022/11/21 04:08:37;;;;;;;0.45;0.35;;;;;;;;;;4143999;28;20054;-44
2022/11/21 04:10:39;;;;;;;0.20;0.20;;;;;;;;;;4150926;28;20461;-44
2022/11/21 04:12:40;;;;;;;0.30;0.25;;;;;;;;;;4146166;28;20112;-44
2022/11/21 04:14:41;;;;;;;0.43;0.40;;;;;;;;;;4146999;28;20452;-47
2022/11/21 04:16:43;;;;;;;0.52;0.20;;;;;;;;;;4145285;28;20120;-45
2022/11/21 04:18:44;;;;;;;0.30;0.30;;;;;;;;;;4135362;28;20053;-44
2022/11/21 04:20:46;;;;;;;0.32;0.30;;;;;;;;;;4146554;28;20600;-44
2022/11/21 04:22:47;;;;;;;0.38;0.30;;;;;;;;;;4146991;28;20049;-45
2022/11/21 04:24:48;;;;;;;0.38;0.35;;;;;;;;;;4133377;28;20066;-44
2022/11/21 04:26:50;;;;;;;0.45;0.32;;;;;;;;;;4158390;28;20050;-44
2022/11/21 04:28:51;;;;;;;0.55;0.30;;;;;;;;;;4137404;28;20065;-44
2022/11/21 04:30:52;;;;;;;0.20;0.20;;;;;;;;;;4146787;28;20053;-43
2022/11/21 04:32:54;;;;;;;0.38;0.28;;;;;;;;;;4129581;28;20085;-46
2022/11/21 04:34:55;;;;;;;0.70;0.32;;;;;;;;;;4146040;28;20094;-44
2022/11/21 04:36:56;;;;;;;0.40;0.30;;;;;;;;;;4146801;28;20053;-45
2022/11/21 04:38:58;;;;;;;0.47;0.40;;;;;;;;;;4153322;28;20058;-44
2022/11/21 04:40:59;;;;;;;0.30;0.30;;;;;;;;;;4142643;28;20057;-45
2022/11/21 04:43:01;;;;;;;0.20;0.20;;;;;;;;;;4130533;28;20095;-44
2022/11/21 04:45:02;;;;;;;0.50;0.40;;;;;;;;;;4143439;28;20452;-44
2022/11/21 04:47:03;;;;;;;0.20;0.20;;;;;;;;;;4130520;28;20078;-44
2022/11/21 04:49:05;;;;;;;0.60;0.38;;;;;;;;;;4137885;28;20053;-45
2022/11/21 04:51:06;;;;;;;0.40;0.32;;;;;;;;;;4144967;28;20058;-44
2022/11/21 04:53:08;;;;;;;0.20;0.20;;;;;;;;;;4128957;28;20050;-43
2022/11/21 04:55:09;;;;;;;0.20;0.20;;;;;;;;;;4158585;28;20061;-44
2022/11/21 04:57:10;;;;;;;0.35;0.35;;;;;;;;;;4136818;28;20109;-45
2022/11/21 04:59:12;;;;;;;0.68;0.30;;;;;;;;;;4146171;28;20390;-48
2022/11/21 05:01:13;;;;;;;1.05;0.40;;;;;;;;;;4132713;28;20050;-45
2022/11/21 05:03:14;;;;;;;1.92;0.50;;;;;;;;;;4149578;28;20112;-45
2022/11/21 05:05:15;;;;;;;0.40;0.40;;;;;;;;;;4149848;28;20100;-45
2022/11/21 05:07:17;;;;;;;0.82;0.40;;;;;;;;;;4150013;28;20046;-45
2022/11/21 05:09:18;;;;;;;0.38;0.35;;;;;;;;;;4149661;28;20065;-49
2022/11/21 05:13:40;;;;;;;0.43;0.43;;;;;;;;;;4143163;28;20058;-46
2022/11/21 05:15:41;;;;;;;0.77;0.50;;;;;;;;;;4143394;28;20120;-43
2022/11/21 05:17:42;;;;;;;0.57;0.57;;;;;;;;;;4165010;28;20075;-45
2022/11/21 05:19:44;;;;;;;0.80;0.77;;;;;;;;;;4164120;28;20053;-45
2022/11/21 05:21:45;;;;;;;0.73;0.70;;;;;;;;;;4149834;28;20057;-43
2022/11/21 05:23:47;;;;;;;0.50;0.50;;;;;;;;;;4149558;28;20058;-43
2022/11/21 05:25:48;;;;;;;0.73;0.60;;;;;;;;;;4135494;28;20061;-44
2022/11/21 05:27:49;;;;;;;0.50;0.50;;;;;;;;;;4128499;28;20089;-44
2022/11/21 05:29:51;;;;;;;0.90;0.80;;;;;;;;;;4137438;28;20062;-43
2022/11/21 05:31:53;;;;;;;1.08;0.88;;;;;;;;;;4137884;28;20082;-44
2022/11/21 05:33:55;;;;;;;0.98;0.90;;;;;;;;;;4143722;28;20054;-43
2022/11/21 05:35:56;;;;;;;0.80;0.75;;;;;;;;;;4133448;28;20066;-43
2022/11/21 05:37:58;;;;;;;0.75;0.73;;;;;;;;;;4146677;28;20049;-43
2022/11/21 05:39:59;;;;;;;1.23;0.90;;;;;;;;;;4144351;28;20081;-44
2022/11/21 05:42:01;;;;;;;1.23;0.88;;;;;;;;;;4147591;28;20520;-47
2022/11/21 05:44:02;;;;;;;0.77;0.68;;;;;;;;;;4134391;28;20061;-44
2022/11/21 05:46:04;;;;;;;1.20;1.08;;;;;;;;;;4149152;28;20050;-44
2022/11/21 05:48:06;;;;;;;1.10;1.00;;;;;;;;;;4131990;28;20054;-45
2022/11/21 05:50:08;;;;;;;1.15;0.90;;;;;;;;;;4131372;28;20473;-45
2022/11/21 05:52:10;;;;;;;1.35;1.00;;;;;;;;;;4130741;28;20113;-45
2022/11/21 05:54:14;;;;;;;1.20;0.95;;;;;;;;;;4134832;28;20065;-44
2022/11/21 05:56:17;;;;;;;1.00;0.82;;;;;;;;;;4139597;28;20062;-43
2022/11/21 05:58:19;;;;;;;1.00;0.90;;;;;;;;;;4140794;28;20065;-44
2022/11/21 06:00:20;;;;;;;1.10;1.00;;;;;;;;;;4122526;28;20449;-46
2022/11/21 06:04:42;;;;;;;0.98;0.85;;;;;;;;;;4145682;28;20058;-43
2022/11/21 06:06:43;;;;;;;1.20;1.10;;;;;;;;;;4147050;28;20120;-44
2022/11/21 06:08:45;;;;;;;1.10;1.00;;;;;;;;;;4158631;28;20148;-46
2022/11/21 06:10:47;;;;;;;1.00;0.90;;;;;;;;;;4138417;28;20108;-45
2022/11/21 06:12:48;;;;;;;1.58;1.00;;;;;;;;;;4145842;28;20050;-45
2022/11/21 06:14:49;;;;;;;1.10;1.00;;;;;;;;;;4142025;28;20052;-43
2022/11/21 06:16:51;;;;;;;1.08;0.98;;;;;;;;;;4142326;28;20061;-46
2022/11/21 06:18:52;;;;;;;1.20;1.10;;;;;;;;;;4141964;28;20045;-48
2022/11/21 06:21:00;;;;;;;1.00;0.88;;;;;;;;;;4139653;28;20050;-46
2022/11/21 06:23:01;;;;;;;1.15;0.98;;;;;;;;;;4145811;28;20088;-46
2022/11/21 06:25:03;;;;;;;1.23;1.00;;;;;;;;;;4137860;28;20089;-44
2022/11/21 06:27:07;;;;;;;1.08;0.98;;;;;;;;;;4137621;28;20052;-45
2022/11/21 06:29:11;;;;;;;1.88;1.20;;;;;;;;;;4138752;28;20068;-46
2022/11/21 06:31:18;;;;;;;1.20;1.10;;;;;;;;;;4154419;28;20061;-45
2022/11/21 06:33:20;;;;;;;1.02;1.00;;;;;;;;;;4124900;28;20645;-47
2022/11/21 06:35:21;;;;;;;1.33;1.10;;;;;;;;;;4142185;28;20061;-48
2022/11/21 06:37:23;;;;;;;0.88;0.85;;;;;;;;;;4141031;28;20050;-47
2022/11/21 06:39:24;;;;;;;0.88;0.88;;;;;;;;;;4160056;28;20061;-47
2022/11/21 06:41:29;;;;;;;1.30;1.10;;;;;;;;;;4139945;28;20058;-46
2022/11/21 06:43:31;;;;;;;1.33;1.17;;;;;;;;;;4139603;28;20054;-46
2022/11/21 06:45:32;;;;;;;0.98;0.90;;;;;;;;;;4142036;28;20057;-44
2022/11/21 06:47:34;;;;;;;0.98;0.82;;;;;;;;;;4141040;28;20357;-47
2022/11/21 06:49:35;;;;;;;1.02;0.90;;;;;;;;;;4150298;28;20053;-47
2022/11/21 06:51:37;;;;;;;2.22;1.20;;;;;;;;;;4139660;28;20057;-47
2022/11/21 06:53:38;;;;;;;1.17;1.08;;;;;;;;;;4127808;28;20050;-46
2022/11/21 06:55:39;;;;;;;1.13;0.90;;;;;;;;;;4130101;28;20128;-43
2022/11/21 06:57:41;;;;;;;1.17;0.90;;;;;;;;;;4121374;28;20107;-44
2022/11/21 06:59:42;;;;;;;1.33;1.00;;;;;;;;;;4130847;28;20054;-46
2022/11/21 07:01:44;;;;;;;1.13;0.80;;;;;;;;;;4139259;28;20129;-47
2022/11/21 07:03:45;;;;;;;1.10;1.00;;;;;;;;;;4122415;28;20474;-46
2022/11/21 07:05:47;;;;;;;1.15;0.98;;;;;;;;;;4105661;28;20133;-44
2022/11/21 07:07:48;;;;;;;1.10;0.70;;;;;;;;;;4125844;28;20058;-44
2022/11/21 07:09:50;;;;;;;1.02;0.93;;;;;;;;;;4113484;28;20085;-46
2022/11/21 07:11:51;;;;;;;1.48;0.90;;;;;;;;;;4144375;28;20564;-46
2022/11/21 07:13:53;;;;;;;3.05;0.75;;;;;;;;;;4129759;28;20096;-47
2022/11/21 07:16:06;;;;;;;0.95;0.82;;;;;;;;;;4128903;28;20053;-44
2022/11/21 07:18:08;;;;;;;1.10;0.88;;;;;;;;;;4126480;28;20527;-44
2022/11/21 07:20:10;;;;;;;2.80;1.10;;;;;;;;;;4124368;28;20065;-46
2022/11/21 07:22:11;;;;;;;1.10;1.00;;;;;;;;;;4105816;28;20101;-43
2022/11/21 07:24:14;;;;;;;1.00;0.90;;;;;;;;;;4124113;28;20115;-46
2022/11/21 07:26:16;;;;;;;1.23;0.70;;;;;;;;;;4125351;28;20640;-45
2022/11/21 07:28:17;;;;;;;1.63;1.10;;;;;;;;;;4122276;28;20065;-44
2022/11/21 07:30:19;;;;;;;1.10;0.93;;;;;;;;;;4139322;28;20371;-48
2022/11/21 07:32:21;;;;;;;1.15;0.95;;;;;;;;;;4122776;28;20070;-43
2022/11/21 07:34:22;;;;;;;0.73;0.73;;;;;;;;;;4128741;28;20489;-49
2022/11/21 07:36:24;;;;;;;1.10;0.90;;;;;;;;;;4124053;28;20054;-48
2022/11/21 07:38:25;;;;;;;1.10;0.93;;;;;;;;;;4134574;28;20418;-44
2022/11/21 07:40:27;;;;;;;1.35;0.90;;;;;;;;;;4111532;28;20161;-45
2022/11/21 07:42:28;;;;;;;0.98;0.77;;;;;;;;;;4128773;28;20461;-49
2022/11/21 07:44:31;;;;;;;1.35;1.00;;;;;;;;;;4130654;28;20054;-45
2022/11/21 07:46:32;;;;;;;1.00;0.90;;;;;;;;;;4120864;28;20115;-44
2022/11/21 07:48:33;;;;;;;1.73;1.00;;;;;;;;;;4118735;28;20637;-47
2022/11/21 07:50:35;;;;;;;1.73;0.95;;;;;;;;;;4127207;28;20053;-46
2022/11/21 07:52:37;;;;;;;1.17;1.00;;;;;;;;;;4099387;28;20054;-47
2022/11/21 07:54:38;;;;;;;2.10;0.77;;;;;;;;;;4130005;28;20062;-45
2022/11/21 07:56:40;;;;;;;1.67;0.90;;;;;;;;;;4121353;28;20077;-46
2022/11/21 07:58:41;;;;;;;0.68;0.68;;;;;;;;;;4130167;28;20089;-44
2022/11/21 08:00:42;;;;;;;1.17;0.95;;;;;;;;;;4125626;28;20551;-42
2022/11/21 08:02:44;;;;;;;1.17;1.00;;;;;;;;;;4102252;28;20921;-44
2022/11/21 08:04:45;;;;;;;0.82;0.77;;;;;;;;;;4101536;28;20559;-45
2022/11/21 08:06:47;;;;;;;0.93;0.75;;;;;;;;;;4122663;28;20062;-44
2022/11/21 08:08:53;;;;;;;1.58;0.80;;;;;;;;;;4126913;28;20583;-45
2022/11/21 08:10:54;;;;;;;0.82;0.65;;;;;;;;;;4127237;28;20460;-48
2022/11/21 08:12:55;;;;;;;1.10;0.80;;;;;;;;;;4130343;28;20064;-44
2022/11/21 08:14:56;;;;;;;0.52;0.47;;;;;;;;;;4123894;28;20501;-46
2022/11/21 08:16:58;;;;;;;0.95;0.70;;;;;;;;;;4128957;28;20058;-45
2022/11/21 08:18:59;;;;;;;0.60;0.60;;;;;;;;;;4131233;28;20054;-44
2022/11/21 08:21:02;;;;;;;1.23;0.75;;;;;;;;;;4141808;28;20084;-47
2022/11/21 08:23:04;;;;;;;0.95;0.57;;;;;;;;;;4128434;28;20057;-45
2022/11/21 08:25:07;;;;;;;0.80;0.63;;;;;;;;;;4124499;28;20881;-44
2022/11/21 08:27:08;;;;;;;2.10;0.60;;;;;;;;;;4131118;28;20064;-43
2022/11/21 08:29:16;;;;;;;0.55;0.45;;;;;;;;;;4127202;28;20058;-47
2022/11/21 08:31:17;;;;;;;0.50;0.40;;;;;;;;;;4126228;28;20131;-46
2022/11/21 08:33:18;;;;;;;1.30;0.50;;;;;;;;;;4121966;28;20107;-43
2022/11/21 08:35:20;;;;;;;0.50;0.40;;;;;;;;;;4133936;28;20065;-43
2022/11/21 08:37:29;;;;;;;0.60;0.40;;;;;;;;;;4138465;28;20057;-44
2022/11/21 08:39:30;;;;;;;0.73;0.45;;;;;;;;;;4115095;28;20127;-43
2022/11/21 08:43:52;;;;;;;0.40;0.30;;;;;;;;;;4102886;28;20524;-46
2022/11/21 08:45:53;;;;;;;0.40;0.40;;;;;;;;;;4090673;28;20058;-46
2022/11/21 08:47:55;;;;;;;1.38;0.30;;;;;;;;;;4123071;28;20057;-45
2022/11/21 08:49:56;;;;;;;0.55;0.40;;;;;;;;;;4116030;28;20050;-46
2022/11/21 08:51:58;;;;;;;0.28;0.28;;;;;;;;;;4130514;28;20058;-44
2022/11/21 08:53:59;;;;;;;0.25;0.25;;;;;;;;;;4127620;28;20453;-44
2022/11/21 08:56:00;;;;;;;0.40;0.30;;;;;;;;;;4124252;28;20062;-45
2022/11/21 08:58:01;;;;;;;0.40;0.40;;;;;;;;;;4116201;28;20054;-43
2022/11/21 09:00:04;;;;;;;0.50;0.43;;;;;;;;;;4121250;28;20050;-47
2022/11/21 09:02:09;;;;;;;0.63;0.40;;;;;;;;;;4124676;28;20108;-44
2022/11/21 09:04:11;;;;;;;0.47;0.40;;;;;;;;;;4127652;28;21103;-44
2022/11/21 09:06:12;;;;;;;0.95;0.30;;;;;;;;;;4123233;28;20053;-45
2022/11/21 09:08:14;;;;;;;0.45;0.40;;;;;;;;;;4123878;28;20117;-44
2022/11/21 09:10:15;;;;;;;0.77;0.50;;;;;;;;;;4126282;28;20058;-47
2022/11/21 09:12:17;;;;;;;0.30;0.30;;;;;;;;;;4127543;28;20348;-46
2022/11/21 09:18:58;;;;;;;0.40;0.40;;;;;;;;;;4125186;28;20110;-43
2022/11/21 09:20:59;;;;;;;0.40;0.38;;;;;;;;;;4143883;28;20144;-43
2022/11/21 09:23:05;;;;;;;0.30;0.30;;;;;;;;;;4129274;28;20072;-44
2022/11/21 09:25:06;;;;;;;0.30;0.30;;;;;;;;;;4127891;28;20054;-44
2022/11/21 09:27:07;;;;;;;0.55;0.40;;;;;;;;;;4110842;28;20090;-45
2022/11/21 09:29:13;;;;;;;0.77;0.30;;;;;;;;;;4131716;28;20061;-44
2022/11/21 09:31:15;;;;;;;2.25;0.32;;;;;;;;;;4128536;28;20062;-45
2022/11/21 09:33:17;;;;;;;0.25;0.25;;;;;;;;;;4143839;28;20520;-44
2022/11/21 09:35:19;;;;;;;0.43;0.40;;;;;;;;;;4137435;28;20061;-45
2022/11/21 09:37:20;;;;;;;0.50;0.40;;;;;;;;;;4129120;28;20105;-46
2022/11/21 09:39:22;;;;;;;0.43;0.43;;;;;;;;;;4133086;28;21071;-43
2022/11/21 09:41:53;;;;;;;0.85;0.30;;;;;;;;;;4132077;28;20058;-44
2022/11/21 09:43:59;;;;;;;;;;;;;;;;;;4116111;28;20063;-45
2022/11/21 09:46:08;;;;;;;0.55;0.40;;;;;;;;;;4132195;28;19925;-44
2022/11/21 09:48:12;;;;;;;0.30;0.30;;;;;;;;;;4129279;28;20192;-46
2022/11/21 09:50:13;;;;;;;0.55;0.38;;;;;;;;;;4135977;28;20473;-49
2022/11/21 09:52:16;;;;;;;0.45;0.45;;;;;;;;;;4135609;28;20053;-44
2022/11/21 09:54:25;;;;;;;1.10;0.55;;;;;;;;;;4126486;28;20413;-44
2022/11/21 09:56:30;;;;;;;0.40;0.40;;;;;;;;;;4130198;28;20069;-43
2022/11/21 09:58:43;;;;;;;0.75;0.70;;;;;;;;;;4132015;28;20085;-43
2022/11/21 10:00:44;;;;;;;0.73;0.50;;;;;;;;;;4120992;28;20109;-45
2022/11/21 10:02:45;;;;;;;0.40;0.40;;;;;;;;;;4135919;28;20056;-44
2022/11/21 10:04:48;;;;;;;0.70;0.70;;;;;;;;;;4142170;28;20053;-46
2022/11/21 10:07:09;;;;;;;0.70;0.60;;;;;;;;;;4132865;28;20054;-46
2022/11/21 10:09:31;;;;;;;1.13;0.70;;;;;;;;;;4112227;28;20138;-42
2022/11/21 10:12:35;;;;;;;0.32;0.32;;;;;;;;;;4126742;28;20057;-44
2022/11/21 10:14:42;;;;;;;0.70;0.40;;;;;;;;;;4120511;28;20058;-47
2022/11/21 10:16:49;;;;;;;0.70;0.55;;;;;;;;;;4115884;28;20061;-46
2022/11/21 10:18:56;;;;;;;0.65;0.50;;;;;;;;;;4118714;28;20732;-44
2022/11/21 10:21:16;;;;;;;2.45;0.65;;;;;;;;;;4132954;28;20054;-45
2022/11/21 10:23:42;;;;;;;0.75;0.65;;;;;;;;;;4133845;28;20049;-45
2022/11/21 10:25:50;;;;;;;0.40;0.40;;;;;;;;;;4119169;28;20110;-44
2022/11/21 10:27:56;;;;;;;0.60;0.40;;;;;;;;;;4137690;28;20049;-43
2022/11/21 10:30:18;;;;;;;0.50;0.50;;;;;;;;;;4140654;28;20108;-44
2022/11/21 10:32:49;;;;;;;0.70;0.55;;;;;;;;;;4127144;28;20112;-45
2022/11/21 10:34:55;;;;;;;0.32;0.32;;;;;;;;;;4132183;28;20115;-44
2022/11/21 10:37:06;;;;;;;0.50;0.50;;;;;;;;;;4130571;28;21019;-45
2022/11/21 10:39:19;;;;;;;0.43;0.43;;;;;;;;;;4148049;28;20054;-44
2022/11/21 10:41:29;;;;;;;0.50;0.45;;;;;;;;;;4144575;28;20084;-47
2022/11/21 10:45:57;;;;;;;0.80;0.40;;;;;;;;;;4139634;28;20057;-43
2022/11/21 10:47:59;;;;;;;0.50;0.50;;;;;;;;;;4136219;28;20084;-47
2022/11/21 10:50:28;;;;;;;1.38;0.52;;;;;;;;;;4121712;28;20125;-44
2022/11/21 10:52:33;;;;;;;0.60;0.50;;;;;;;;;;4134027;28;20062;-44
2022/11/21 10:55:01;;;;;;;0.40;0.40;;;;;;;;;;4134979;28;20100;-45
2022/11/21 10:57:13;;;;;;;0.50;0.40;;;;;;;;;;4136345;28;20058;-47
2022/11/21 10:59:22;;;;;;;0.70;0.52;;;;;;;;;;4132844;28;20065;-46
2022/11/21 11:01:34;;;;;;;0.55;0.45;;;;;;;;;;4138208;28;20053;-47
2022/11/21 11:03:35;;;;;;;0.95;0.68;;;;;;;;;;4122435;28;20117;-45
2022/11/21 11:05:37;;;;;;;0.70;0.60;;;;;;;;;;4119949;28;20093;-47
2022/11/21 11:07:39;;;;;;;3.92;0.40;;;;;;;;;;4136673;28;20053;-46
2022/11/21 11:09:45;;;;;;;2.88;0.30;;;;;;;;;;4140992;28;20046;-44
2022/11/21 11:11:47;;;;;;;0.40;0.40;;;;;;;;;;4129086;28;20058;-45
2022/11/21 11:14:11;;;;;;;0.35;0.35;;;;;;;;;;4159664;28;20057;-46
2022/11/21 11:16:18;;;;;;;1.45;0.52;;;;;;;;;;4105842;28;20058;-45
2022/11/21 11:18:21;;;;;;;0.50;0.50;;;;;;;;;;4123695;28;20058;-45
2022/11/21 11:20:36;;;;;;;0.40;0.40;;;;;;;;;;4134577;28;20064;-44
2022/11/21 11:22:39;;;;;;;0.55;0.43;;;;;;;;;;4143930;28;20050;-44
2022/11/21 11:24:51;;;;;;;0.40;0.30;;;;;;;;;;4130743;28;20050;-48
2022/11/21 11:27:01;;;;;;;0.80;0.75;;;;;;;;;;4138243;28;20065;-45
2022/11/21 11:29:13;;;;;;;;;;;;;;;;;;4134217;28;20065;-44
2022/11/21 11:31:14;;;;;;;0.52;0.50;;;;;;;;;;4130734;28;19929;-42
2022/11/21 11:33:51;;;;;;;0.75;0.50;;;;;;;;;;4144164;28;20053;-45
2022/11/21 11:35:56;;;;;;;0.40;0.40;;;;;;;;;;4140001;28;20058;-46
2022/11/21 11:38:04;;;;;;;0.50;0.47;;;;;;;;;;4142095;28;20053;-44
2022/11/21 11:40:27;;;;;;;0.43;0.40;;;;;;;;;;4142033;28;20599;-47
2022/11/21 11:48:19;;;;;;;0.30;0.25;;;;;;;;;;4115464;28;20058;-46
2022/11/21 11:50:43;;;;;;;0.60;0.40;;;;;;;;;;4129764;28;20133;-42
2022/11/21 11:52:44;;;;;;;0.50;0.38;;;;;;;;;;4137248;28;20462;-45
2022/11/21 11:54:48;;;;;;;1.00;0.35;;;;;;;;;;4140815;28;20057;-43
2022/11/21 11:56:50;;;;;;;0.35;0.30;;;;;;;;;;4130981;28;20053;-45
2022/11/21 11:58:54;;;;;;;0.82;0.40;;;;;;;;;;4128827;28;20101;-42
2022/11/21 12:00:59;;;;;;;0.30;0.28;;;;;;;;;;4116997;28;20184;-42
2022/11/21 12:03:14;;;;;;;0.30;0.30;;;;;;;;;;4118617;28;20058;-42
2022/11/21 12:05:24;;;;;;;0.60;0.40;;;;;;;;;;4128009;28;20103;-42
2022/11/21 12:07:34;;;;;;;2.10;0.35;;;;;;;;;;4133052;28;20058;-43
2022/11/21 12:09:35;;;;;;;;;;;;;;;;;;4131298;28;20576;-42
2022/11/21 12:14:12;;;;;;;0.77;0.32;;;;;;;;;;4140047;28;20120;-43
2022/11/21 12:16:14;;;;;;;0.52;0.32;;;;;;;;;;4132169;28;20045;-42
2022/11/21 12:18:18;;;;;;;0.30;0.30;;;;;;;;;;4121000;28;20068;-42
2022/11/21 12:20:32;;;;;;;1.05;0.40;;;;;;;;;;4134640;28;20565;-41
2022/11/21 12:22:34;;;;;;;0.20;0.20;;;;;;;;;;4100959;28;20387;-41
2022/11/21 12:24:35;;;;;;;0.30;0.30;;;;;;;;;;4132865;28;20594;-42
2022/11/21 12:27:22;;;;;;;0.30;0.30;;;;;;;;;;4140148;28;20053;-43
2022/11/21 12:29:48;;;;;;;0.40;0.40;;;;;;;;;;4122047;28;20054;-42
2022/11/21 12:32:08;;;;;;;0.38;0.32;;;;;;;;;;4129218;28;20546;-42
2022/11/21 12:34:23;;;;;;;0.30;0.30;;;;;;;;;;4120611;28;20120;-42
2022/11/21 12:36:30;;;;;;;0.43;0.40;;;;;;;;;;4127828;28;20105;-42
2022/11/21 12:38:50;;;;;;;0.50;0.30;;;;;;;;;;4130754;28;20054;-43
2022/11/21 12:43:46;;;;;;;0.30;0.28;;;;;;;;;;4133538;28;20111;-42
2022/11/21 12:45:55;;;;;;;0.38;0.30;;;;;;;;;;4113946;28;20054;-42
2022/11/21 12:55:40;;;;;;;0.43;0.40;;;;;;;;;;4146295;28;20506;-43
2022/11/21 12:58:03;;;;;;;0.50;0.40;;;;;;;;;;4144532;28;20054;-45